Vadito, NM

2:01 AM MDT on August 22, 2014 (GMT -0600)
Taos Municipal | Change Station
CLOSE
Current Station
Airport
Location: Taos,
Elevation: 7090 ft
Nearby Weather Stations

Elev 7090 ft 36.46 °N, 105.67 °W | Updated 6 minutes ago

Clear
Clear
61 °F
Feels Like 61 °F
N
7
Wind Variable Wind from ESE

Today
High -- | Low -- °F
--% Chance of Precip.
Yesterday
High -- | Low -- °F
Precip. -- in
6:26 AM 7:44 PM
Waning Crescent, 9% visible
Pressure 30.24 in
Visibility 10.0 miles
Clouds Clear
Dew Point 36 °F
Humidity 39%
Rainfall 0.00 in
Snow Depth Not available.
UV 0 out of 12
Pollen 7.60 out of 12
Air Quality Not available.
Flu Activity Not available.
METAR KSKX 220755Z AUTO 12006KT 10SM CLR 16/02 A3024 RMK AO1

More Conditions Fewer Conditions

Pressure 30.24 in
Visibility 10.0 miles
Clouds Clear
Dew Point 36 °F
Humidity 39%
Rainfall 0.00 in
Snow Depth Not available.
UV 0 out of 12
Pollen 7.60 out of 12
Air Quality Not available.
Flu Activity Not available.
METAR KSKX 220755Z AUTO 12006KT 10SM CLR 16/02 A3024 RMK AO1

More Conditions Fewer Conditions

10-Day Weather Forecast

Almanac

Astronomy

Aug. 22, 2014 Rise Set
Actual Time 6:26 AM MDT 7:44 PM MDT
Civil Twilight 5:59 AM MDT 8:10 PM MDT
Nautical Twilight 5:27 AM MDT 8:42 PM MDT
Astronomical Twilight 4:54 AM MDT 9:16 PM MDT
Moon 3:53 AM MDT 5:52 PM MDT
Length of Visible Light 14h 11m
Length of Day
13h 17m
Tomorrow will be 2m 7s shorter.
Waning Crescent, 9% of the Moon is Illuminated
Today
Waning Crescent
Aug 25
New
Sep 2
First Quarter
Sep 8
Full
Sep 15
Last Quarter

Today's Extremes

State Highs State Lows

Community

WunderPhotos

Upload Photos

1,746,142 photos uploaded!

Nearby

Snow Depth

Station Depth Elevation
Gallegos Peak 0 in 9800 ft
Santa Fe 1 in 11445 ft
Wesner Springs 2 in 11120 ft
Tolby 0 in 10180 ft
Bateman 0 in 9300 ft

Earthquake Activity

City Distance Mag. Time & Date
No recent earthquake activity has been reported nearby.
Minimum magnitude displayed is 2.5.

Coastal Water Temperatures

Place Temperature
No Stations Reporting

Nearby Weather Stations